createdAt,value
2018-04-24T00:01:18.203Z,8.87
2018-04-24T00:03:47.112Z,10.10
2018-04-24T00:06:16.044Z,9.50
2018-04-24T00:08:45.294Z,10.60
2018-04-24T00:11:14.395Z,9.50
2018-04-24T00:13:44.344Z,10.10
2018-04-24T00:16:14.307Z,10.20
2018-04-24T00:18:43.318Z,10.40
2018-04-24T00:21:12.416Z,11.47
2018-04-24T00:26:15.798Z,10.10
2018-04-24T00:28:44.825Z,10.13
2018-04-24T00:31:16.071Z,9.43
2018-04-24T00:33:45.071Z,9.90
2018-04-24T00:36:14.058Z,11.00
2018-04-24T00:38:43.152Z,10.80
2018-04-24T00:41:12.180Z,11.80
2018-04-24T00:43:41.207Z,12.13
2018-04-24T00:46:11.163Z,11.70
2018-04-24T00:48:40.259Z,12.40
2018-04-24T00:51:09.187Z,11.97
2018-04-24T00:53:40.946Z,12.80
2018-04-24T00:56:09.825Z,12.53
2018-04-24T00:58:38.939Z,12.37
2018-04-24T01:01:13.319Z,13.70
2018-04-24T01:03:42.205Z,12.50
2018-04-24T01:06:11.204Z,12.50
2018-04-24T01:08:41.324Z,12.10
2018-04-24T01:11:10.424Z,12.67
2018-04-24T01:13:39.414Z,12.37
2018-04-24T01:16:09.233Z,13.03
2018-04-24T01:18:38.167Z,13.23
2018-04-24T01:21:07.220Z,12.20
2018-04-24T01:23:36.261Z,13.90
2018-04-24T01:26:06.236Z,14.00
2018-04-24T01:28:35.217Z,14.80
2018-04-24T01:31:06.774Z,13.60
2018-04-24T01:33:35.780Z,13.77
2018-04-24T01:36:05.375Z,11.57
2018-04-24T01:38:43.184Z,14.90
2018-04-24T01:41:12.175Z,14.07
2018-04-24T01:43:41.171Z,14.00
2018-04-24T01:46:11.020Z,12.70
2018-04-24T01:48:39.921Z,12.13
2018-04-24T01:51:08.865Z,12.30
2018-04-24T01:53:39.415Z,12.83
2018-04-24T01:56:08.289Z,12.33
2018-04-24T01:58:37.281Z,12.90
2018-04-24T02:01:07.971Z,12.80
2018-04-24T02:03:36.941Z,12.33
2018-04-24T02:06:06.008Z,12.90
2018-04-24T02:08:34.994Z,13.47
2018-04-24T02:11:04.404Z,12.33
2018-04-24T02:13:33.393Z,11.87
2018-04-24T02:16:04.714Z,13.30
2018-04-24T02:18:34.658Z,12.80
2018-04-24T02:21:03.532Z,13.30
2018-04-24T02:23:32.547Z,12.20
2018-04-24T02:26:01.541Z,13.30
2018-04-24T02:28:31.456Z,12.93
2018-04-24T02:31:01.373Z,14.03
2018-04-24T02:33:30.890Z,12.30
2018-04-24T02:35:59.984Z,13.10
2018-04-24T02:38:30.821Z,13.47
2018-04-24T02:41:00.771Z,14.13
2018-04-24T02:43:30.449Z,12.37
2018-04-24T02:46:00.557Z,12.23
2018-04-24T02:48:29.485Z,12.53
2018-04-24T02:50:58.439Z,13.27
2018-04-24T02:53:28.360Z,11.93
2018-04-24T02:55:57.552Z,13.10
2018-04-24T02:58:27.660Z,12.43
2018-04-24T03:00:56.565Z,14.23
2018-04-24T03:03:26.493Z,13.73
2018-04-24T03:05:57.731Z,13.90
2018-04-24T03:08:29.499Z,13.13
2018-04-24T03:10:58.371Z,13.20
2018-04-24T03:13:27.485Z,13.70
2018-04-24T03:15:56.583Z,12.33
2018-04-24T03:18:26.697Z,13.77
2018-04-24T03:20:55.684Z,14.53
2018-04-24T03:23:24.791Z,13.33
2018-04-24T03:25:53.882Z,13.60
2018-04-24T03:28:22.878Z,13.17
2018-04-24T03:30:51.972Z,12.93
2018-04-24T03:33:21.990Z,13.40
2018-04-24T03:35:50.986Z,13.80
2018-04-24T03:38:19.928Z,12.33
2018-04-24T03:40:49.790Z,12.07
2018-04-24T03:43:18.788Z,11.90
2018-04-24T03:45:49.387Z,11.83
2018-04-24T03:48:18.996Z,10.67
2018-04-24T03:50:47.983Z,12.27
2018-04-24T03:53:18.146Z,10.77
2018-04-24T03:55:47.239Z,10.90
2018-04-24T03:58:16.333Z,12.37
2018-04-24T04:00:46.900Z,10.67
2018-04-24T04:03:15.850Z,12.03
2018-04-24T04:05:44.757Z,11.30
2018-04-24T04:08:13.856Z,10.83
2018-04-24T04:10:42.892Z,11.23
2018-04-24T04:13:11.940Z,11.30
2018-04-24T04:15:41.853Z,11.47
2018-04-24T04:21:31.553Z,10.80
2018-04-24T04:24:18.106Z,10.70
2018-04-24T04:26:48.084Z,9.40
2018-04-24T04:29:18.028Z,9.70
2018-04-24T04:31:46.987Z,9.30
2018-04-24T04:34:16.115Z,10.13
2018-04-24T04:36:45.178Z,9.03
2018-04-24T04:39:14.246Z,9.10
2018-04-24T04:41:44.043Z,10.97
2018-04-24T04:44:13.181Z,9.43
2018-04-24T04:46:43.102Z,9.40
2018-04-24T04:49:12.810Z,9.10
2018-04-24T04:51:42.373Z,9.00
2018-04-24T04:54:11.396Z,9.37
2018-04-24T04:56:40.349Z,9.73
2018-04-24T04:59:09.211Z,10.00
2018-04-24T05:01:38.171Z,10.33
2018-04-24T05:04:08.888Z,10.70
2018-04-24T05:06:38.301Z,12.37
2018-04-24T05:09:07.259Z,11.60
2018-04-24T05:11:36.192Z,9.83
2018-04-24T05:14:05.826Z,8.97
2018-04-24T05:16:34.824Z,10.67
2018-04-24T05:19:03.819Z,10.73
2018-04-24T05:21:33.934Z,9.93
2018-04-24T05:24:02.928Z,10.03
2018-04-24T05:26:31.936Z,10.90
2018-04-24T05:29:01.020Z,9.33
2018-04-24T05:31:30.032Z,10.30
2018-04-24T05:33:59.038Z,8.80
2018-04-24T05:36:28.012Z,9.60
2018-04-24T05:38:56.996Z,9.87
2018-04-24T05:41:26.199Z,9.60
2018-04-24T05:43:55.084Z,9.30
2018-04-24T05:46:24.073Z,9.63
2018-04-24T05:48:54.406Z,9.13
2018-04-24T05:51:24.226Z,9.87
2018-04-24T05:53:54.035Z,9.60
2018-04-24T05:56:23.024Z,9.50
2018-04-24T05:58:52.326Z,9.87
2018-04-24T06:01:21.880Z,9.63
2018-04-24T06:06:25.455Z,9.47
2018-04-24T06:08:54.317Z,9.93
2018-04-24T06:11:24.927Z,9.23
2018-04-24T06:13:53.972Z,10.33
2018-04-24T06:16:22.941Z,9.73
2018-04-24T06:18:52.784Z,10.30
2018-04-24T06:21:21.775Z,9.53
2018-04-24T06:23:51.593Z,9.40
2018-04-24T06:26:23.248Z,9.63
2018-04-24T06:28:52.957Z,10.47
2018-04-24T06:31:21.950Z,10.20
2018-04-24T06:33:51.500Z,9.83
2018-04-24T06:36:21.250Z,9.27
2018-04-24T06:38:50.156Z,9.27
2018-04-24T06:41:21.237Z,8.73
2018-04-24T06:43:50.400Z,8.80
2018-04-24T06:46:19.297Z,8.47
2018-04-24T06:48:48.218Z,7.97
2018-04-24T06:51:17.178Z,8.63
2018-04-24T06:53:46.058Z,8.60
2018-04-24T06:56:15.173Z,8.83
2018-04-24T06:58:45.018Z,9.23
2018-04-24T07:01:13.978Z,9.13
2018-04-24T07:03:44.795Z,9.40
2018-04-24T07:06:13.707Z,9.17
2018-04-24T07:08:42.798Z,8.77
2018-04-24T07:11:11.793Z,9.67
2018-04-24T07:13:40.792Z,8.57
2018-04-24T07:16:09.679Z,8.57
2018-04-24T07:18:40.470Z,9.97
2018-04-24T07:21:09.431Z,9.40
2018-04-24T07:23:38.242Z,9.90
2018-04-24T07:28:41.517Z,8.53
2018-04-24T07:31:10.507Z,7.20
2018-04-24T07:33:39.373Z,8.53
2018-04-24T07:36:09.362Z,8.27
2018-04-24T07:38:39.118Z,8.70
2018-04-24T07:41:08.068Z,9.10
2018-04-24T07:43:37.227Z,9.50
2018-04-24T07:46:06.216Z,9.40
2018-04-24T07:48:35.305Z,8.43
2018-04-24T07:51:04.300Z,10.53
2018-04-24T07:53:34.150Z,9.90
2018-04-24T07:56:03.111Z,9.73
2018-04-24T07:58:32.193Z,10.63
2018-04-24T08:01:01.131Z,10.40
2018-04-24T08:03:30.715Z,10.20
2018-04-24T08:08:34.021Z,11.10
2018-04-24T08:11:02.973Z,10.20
2018-04-24T08:13:31.946Z,10.37
2018-04-24T08:16:03.362Z,10.00
2018-04-24T08:18:35.115Z,9.70
2018-04-24T08:21:04.052Z,9.60
2018-04-24T08:23:34.026Z,10.43
2018-04-24T08:26:03.636Z,9.20
2018-04-24T08:28:33.492Z,9.50
2018-04-24T08:31:02.485Z,10.10
2018-04-24T08:33:34.439Z,9.80
2018-04-24T08:36:03.604Z,9.33
2018-04-24T08:38:32.595Z,9.43
2018-04-24T08:41:03.243Z,9.90
2018-04-24T08:43:32.227Z,9.23
2018-04-24T08:46:01.253Z,9.33
2018-04-24T08:48:30.894Z,10.03
2018-04-24T08:50:59.925Z,10.80
2018-04-24T08:53:29.946Z,10.40
2018-04-24T08:55:58.834Z,10.60
2018-04-24T08:58:27.871Z,10.80
2018-04-24T09:00:56.824Z,9.57
2018-04-24T09:03:27.149Z,9.60
2018-04-24T09:05:56.238Z,9.73
2018-04-24T09:08:25.138Z,10.27
2018-04-24T09:10:54.127Z,9.40
2018-04-24T09:13:23.132Z,9.20
2018-04-24T09:15:52.095Z,8.90
2018-04-24T09:18:21.105Z,9.80
2018-04-24T09:20:50.001Z,9.10
2018-04-24T09:23:19.142Z,8.90
2018-04-24T09:25:48.252Z,9.10
2018-04-24T09:28:17.335Z,8.23
2018-04-24T09:30:46.285Z,8.57
2018-04-24T09:33:17.590Z,8.93
2018-04-24T09:35:47.447Z,9.17
2018-04-24T09:38:16.654Z,8.30
2018-04-24T09:40:49.129Z,8.33
2018-04-24T09:43:18.016Z,8.47
2018-04-24T09:45:47.119Z,8.17
2018-04-24T09:48:16.155Z,9.10
2018-04-24T09:50:46.026Z,8.60
2018-04-24T09:53:15.125Z,10.47
2018-04-24T09:55:48.324Z,11.43
2018-04-24T09:58:17.344Z,10.53
2018-04-24T10:00:46.399Z,10.20
2018-04-24T10:05:50.598Z,11.13
2018-04-24T10:08:20.413Z,10.50
2018-04-24T10:10:49.343Z,9.60
2018-04-24T10:13:18.333Z,9.67
2018-04-24T10:15:47.223Z,9.47
2018-04-24T10:18:16.223Z,10.47
2018-04-24T10:20:45.214Z,9.33
2018-04-24T10:23:15.642Z,10.07
2018-04-24T10:25:46.829Z,9.63
2018-04-24T10:28:15.784Z,10.40
2018-04-24T10:30:44.677Z,9.60
2018-04-24T10:33:17.560Z,9.80
2018-04-24T10:35:46.598Z,10.40
2018-04-24T10:38:15.542Z,9.47
2018-04-24T10:43:18.663Z,9.60
2018-04-24T10:45:47.650Z,9.63
2018-04-24T10:48:18.689Z,10.40
2018-04-24T10:50:47.991Z,9.40
2018-04-24T10:53:16.999Z,10.13
2018-04-24T10:55:46.906Z,9.27
2018-04-24T10:58:15.789Z,10.37
2018-04-24T11:00:44.946Z,10.70
2018-04-24T11:03:14.232Z,10.33
2018-04-24T11:05:43.185Z,9.60
2018-04-24T11:08:12.159Z,9.80
2018-04-24T11:10:42.511Z,10.13
2018-04-24T11:13:11.484Z,8.53
2018-04-24T11:15:40.494Z,9.80
2018-04-24T11:18:09.495Z,8.60
2018-04-24T11:20:38.583Z,9.10
2018-04-24T11:23:07.588Z,9.80
2018-04-24T11:25:36.769Z,9.50
2018-04-24T11:28:05.671Z,10.20
2018-04-24T11:30:34.654Z,9.20
2018-04-24T11:33:04.480Z,9.60
2018-04-24T11:35:33.990Z,10.33
2018-04-24T11:38:02.978Z,10.10
2018-04-24T11:40:31.971Z,9.47
2018-04-24T11:43:00.971Z,8.80
2018-04-24T11:45:29.973Z,10.00
2018-04-24T11:47:59.311Z,9.60
2018-04-24T11:50:28.197Z,10.47
2018-04-24T11:52:57.863Z,10.07
2018-04-24T11:55:27.475Z,9.60
2018-04-24T11:57:56.475Z,9.70
2018-04-24T12:00:25.420Z,8.57
2018-04-24T12:02:54.495Z,9.20
2018-04-24T12:05:23.447Z,10.80
2018-04-24T12:07:52.443Z,11.40
2018-04-24T12:10:21.840Z,10.80
2018-04-24T12:12:50.653Z,10.43
2018-04-24T12:15:19.913Z,10.20
2018-04-24T12:17:50.363Z,10.10
2018-04-24T12:20:19.242Z,9.17
2018-04-24T12:22:48.262Z,10.23
2018-04-24T12:25:20.117Z,8.77
2018-04-24T12:27:49.456Z,9.30
2018-04-24T12:30:18.508Z,9.90
2018-04-24T12:32:48.423Z,9.83
2018-04-24T12:35:18.233Z,9.87
2018-04-24T12:37:47.289Z,11.13
2018-04-24T12:40:18.153Z,9.80
2018-04-24T12:42:48.029Z,10.47
2018-04-24T12:45:17.086Z,10.27
2018-04-24T12:47:46.081Z,9.60
2018-04-24T12:50:15.167Z,9.13
2018-04-24T12:52:44.781Z,9.77
2018-04-24T12:55:14.703Z,10.20
2018-04-24T12:57:43.629Z,9.90
2018-04-24T13:00:12.686Z,9.70
2018-04-24T13:02:41.785Z,8.83
2018-04-24T13:05:10.845Z,8.93
2018-04-24T13:07:39.768Z,8.40
2018-04-24T13:10:10.695Z,8.60
2018-04-24T13:12:40.658Z,7.97
2018-04-24T13:15:09.658Z,9.80
2018-04-24T13:17:39.543Z,7.00
2018-04-24T13:20:08.414Z,7.93
2018-04-24T13:22:37.422Z,7.87
2018-04-24T13:25:07.307Z,8.03
2018-04-24T13:27:36.462Z,6.20
2018-04-24T13:30:05.667Z,7.03
2018-04-24T13:32:34.725Z,6.83
2018-04-24T13:35:03.826Z,6.80
2018-04-24T13:37:32.719Z,7.17
2018-04-24T13:40:03.352Z,7.87
2018-04-24T13:42:32.428Z,6.77
2018-04-24T13:45:01.393Z,6.27
2018-04-24T13:47:30.577Z,8.30
2018-04-24T13:49:59.537Z,7.07
2018-04-24T13:52:28.531Z,7.07
2018-04-24T13:54:59.470Z,8.47
2018-04-24T13:57:28.463Z,7.17
2018-04-24T13:59:57.450Z,7.60
2018-04-24T14:02:28.069Z,7.50
2018-04-24T14:04:57.216Z,8.00
2018-04-24T14:07:26.182Z,8.33
2018-04-24T14:09:55.382Z,8.60
2018-04-24T14:12:24.304Z,7.60
2018-04-24T14:14:54.394Z,8.70
2018-04-24T14:17:23.472Z,8.57
2018-04-24T14:19:52.481Z,8.43
2018-04-24T14:22:21.537Z,8.53
2018-04-24T14:24:53.142Z,10.07
2018-04-24T14:27:22.124Z,8.70
2018-04-24T14:29:51.597Z,9.20
2018-04-24T14:32:20.588Z,8.87
2018-04-24T14:34:49.599Z,9.00
2018-04-24T14:37:18.818Z,8.97
2018-04-24T14:39:49.664Z,9.27
2018-04-24T14:42:23.459Z,9.17
2018-04-24T14:44:52.401Z,8.70
2018-04-24T14:47:21.480Z,8.87
2018-04-24T14:49:50.545Z,8.40
2018-04-24T14:52:20.398Z,9.47
2018-04-24T14:54:49.380Z,8.33
2018-04-24T14:57:18.768Z,8.37
2018-04-24T14:59:48.674Z,9.27
2018-04-24T15:02:17.666Z,9.07
2018-04-24T15:04:49.118Z,8.50
2018-04-24T15:07:18.143Z,8.50
2018-04-24T15:09:47.016Z,9.73
2018-04-24T15:12:16.000Z,9.10
2018-04-24T15:17:18.903Z,9.30
2018-04-24T15:19:48.029Z,9.23
2018-04-24T15:22:16.926Z,8.67
2018-04-24T15:24:45.986Z,9.27
2018-04-24T15:27:15.187Z,8.03
2018-04-24T15:29:44.385Z,8.83
2018-04-24T15:32:13.931Z,8.20
2018-04-24T15:34:42.915Z,9.20
2018-04-24T15:37:11.886Z,8.20
2018-04-24T15:39:40.978Z,8.17
2018-04-24T15:42:09.909Z,7.67
2018-04-24T15:44:41.834Z,7.70
2018-04-24T15:47:10.824Z,8.17
2018-04-24T15:49:39.815Z,9.00
2018-04-24T15:52:08.821Z,9.33
2018-04-24T15:54:37.948Z,10.20
2018-04-24T15:57:07.732Z,9.40
2018-04-24T15:59:36.766Z,9.33
2018-04-24T16:02:06.629Z,10.03
2018-04-24T16:04:35.571Z,9.40
2018-04-24T16:07:05.587Z,10.03
2018-04-24T16:09:35.252Z,10.00
2018-04-24T16:12:06.101Z,10.40
2018-04-24T16:17:10.014Z,10.93
2018-04-24T16:19:39.813Z,13.17
2018-04-24T16:22:08.802Z,12.03
2018-04-24T16:24:37.765Z,12.90
2018-04-24T16:27:14.325Z,12.57
2018-04-24T16:29:44.407Z,10.93
2018-04-24T16:32:13.562Z,11.80
2018-04-24T16:34:45.163Z,11.23
2018-04-24T16:37:15.896Z,13.20
2018-04-24T16:39:44.892Z,12.60
2018-04-24T16:42:14.083Z,12.33
2018-04-24T16:44:43.188Z,12.00
2018-04-24T16:47:13.098Z,10.60
2018-04-24T16:49:42.903Z,11.40
2018-04-24T16:52:11.850Z,11.00
2018-04-24T16:54:40.803Z,12.90
2018-04-24T16:57:10.516Z,11.50
2018-04-24T16:59:39.470Z,12.03
2018-04-24T17:02:08.706Z,12.97
2018-04-24T17:04:37.905Z,12.43
2018-04-24T17:07:07.543Z,11.40
2018-04-24T17:09:37.472Z,10.87
2018-04-24T17:12:07.247Z,11.97
2018-04-24T17:14:36.246Z,11.10
2018-04-24T17:17:05.358Z,10.87
2018-04-24T17:19:35.283Z,10.60
2018-04-24T17:22:04.791Z,10.30
2018-04-24T17:24:33.888Z,9.40
2018-04-24T17:27:02.945Z,10.03
2018-04-24T17:29:32.037Z,9.50
2018-04-24T17:32:01.033Z,9.47
2018-04-24T17:34:30.026Z,9.57
2018-04-24T17:36:59.105Z,10.80
2018-04-24T17:39:28.128Z,9.23
2018-04-24T17:41:57.248Z,10.43
2018-04-24T17:44:26.215Z,11.47
2018-04-24T17:46:55.412Z,10.10
2018-04-24T17:49:24.648Z,10.83
2018-04-24T17:51:53.658Z,11.53
2018-04-24T17:54:23.209Z,10.40
2018-04-24T17:56:53.240Z,10.20
2018-04-24T17:59:22.338Z,10.50
2018-04-24T18:01:51.317Z,10.63
2018-04-24T18:04:20.517Z,10.57
2018-04-24T18:06:49.626Z,10.87
2018-04-24T18:09:19.636Z,10.60
2018-04-24T18:11:48.711Z,11.20
2018-04-24T18:14:17.919Z,11.43
2018-04-24T18:16:47.029Z,11.73
2018-04-24T18:19:16.978Z,12.77
2018-04-24T18:21:45.979Z,12.07
2018-04-24T18:24:15.853Z,13.40
2018-04-24T18:26:45.159Z,12.03
2018-04-24T18:29:14.081Z,12.33
2018-04-24T18:31:43.037Z,12.67
2018-04-24T18:34:14.486Z,11.47
2018-04-24T18:36:43.483Z,11.63
2018-04-24T18:39:12.423Z,11.93
2018-04-24T18:41:41.278Z,12.47
2018-04-24T18:44:11.328Z,12.53
2018-04-24T18:46:40.378Z,12.70
2018-04-24T18:49:11.989Z,12.63
2018-04-24T18:51:40.949Z,14.97
2018-04-24T18:54:10.033Z,14.27
2018-04-24T18:56:40.762Z,14.77
2018-04-24T18:59:09.965Z,14.40
2018-04-24T19:01:38.951Z,13.50
2018-04-24T19:04:08.195Z,15.17
2018-04-24T19:06:37.243Z,13.87
2018-04-24T19:09:06.355Z,14.03
2018-04-24T19:11:36.358Z,12.93
2018-04-24T19:14:10.986Z,14.90
2018-04-24T19:16:41.717Z,12.33
2018-04-24T19:19:16.557Z,12.93
2018-04-24T19:21:52.926Z,12.70
2018-04-24T19:24:28.053Z,12.20
2018-04-24T19:26:57.775Z,12.73
2018-04-24T19:29:26.869Z,13.60
2018-04-24T19:34:35.489Z,13.27
2018-04-24T19:37:04.497Z,12.23
2018-04-24T19:39:51.208Z,15.03
2018-04-24T19:42:20.207Z,15.00
2018-04-24T19:44:49.242Z,13.00
2018-04-24T19:47:18.293Z,14.57
2018-04-24T19:49:52.706Z,12.90
2018-04-24T19:52:22.618Z,12.97
2018-04-24T19:54:57.154Z,13.00
2018-04-24T19:57:28.835Z,13.10
2018-04-24T20:00:02.880Z,14.63
2018-04-24T20:02:34.785Z,14.60
2018-04-24T20:05:03.987Z,14.10
2018-04-24T20:07:38.065Z,12.97
2018-04-24T20:10:07.525Z,14.60
2018-04-24T20:12:36.485Z,13.10
2018-04-24T20:15:12.680Z,14.23
2018-04-24T20:17:42.280Z,14.50
2018-04-24T20:20:13.339Z,16.30
2018-04-24T20:22:44.750Z,15.43
2018-04-24T20:25:15.509Z,15.30
2018-04-24T20:27:44.711Z,15.13
2018-04-24T20:30:13.805Z,14.80
2018-04-24T20:32:42.810Z,15.27
2018-04-24T20:35:11.798Z,15.67
2018-04-24T20:37:40.682Z,14.77
2018-04-24T20:40:09.988Z,15.57
2018-04-24T20:42:39.022Z,15.23
2018-04-24T20:45:13.172Z,15.30
2018-04-24T20:47:42.705Z,14.60
2018-04-24T20:50:12.864Z,15.23
2018-04-24T20:52:42.643Z,14.30
2018-04-24T20:55:11.529Z,13.47
2018-04-24T20:57:40.422Z,13.27
2018-04-24T21:00:11.211Z,10.67
2018-04-24T21:02:41.174Z,11.00
2018-04-24T21:07:46.272Z,10.40
2018-04-24T21:10:15.220Z,11.00
2018-04-24T21:12:44.110Z,10.20
2018-04-24T21:15:14.956Z,11.60
2018-04-24T21:17:43.857Z,9.73
2018-04-24T21:20:13.145Z,9.13
2018-04-24T21:22:42.342Z,9.67
2018-04-24T21:25:11.164Z,9.30
2018-04-24T21:27:40.130Z,10.10
2018-04-24T21:35:18.681Z,8.00
2018-04-24T21:37:47.885Z,6.47
2018-04-24T21:40:19.127Z,7.00
2018-04-24T21:42:48.101Z,7.37
2018-04-24T21:45:17.061Z,7.50
2018-04-24T21:47:47.958Z,6.90
2018-04-24T21:50:16.986Z,6.60
2018-04-24T21:52:46.041Z,7.43
2018-04-24T21:57:48.854Z,17.10
2018-04-24T22:00:17.940Z,21.37
2018-04-24T22:02:46.931Z,11.97
2018-04-24T22:05:16.060Z,9.40
2018-04-24T22:07:46.039Z,9.20
2018-04-24T22:10:15.144Z,12.97
2018-04-24T22:12:45.089Z,11.83
2018-04-24T22:15:14.054Z,10.37
2018-04-24T22:17:43.157Z,10.23
2018-04-24T22:20:12.774Z,10.67
2018-04-24T22:22:41.744Z,8.40
2018-04-24T22:25:10.714Z,7.67
2018-04-24T22:27:41.895Z,6.80
2018-04-24T22:30:11.110Z,7.90
2018-04-24T22:32:40.394Z,7.60
2018-04-24T22:35:09.734Z,7.87
2018-04-24T22:37:38.555Z,7.93
2018-04-24T22:40:07.475Z,7.10
2018-04-24T22:45:11.543Z,7.10
2018-04-24T22:47:40.501Z,6.90
2018-04-24T22:50:09.392Z,7.30
2018-04-24T22:52:39.464Z,7.30
2018-04-24T22:55:08.591Z,6.30
2018-04-24T22:57:37.637Z,6.87
2018-04-24T23:00:09.577Z,6.77
2018-04-24T23:02:38.551Z,5.97
2018-04-24T23:05:07.452Z,9.40
2018-04-24T23:07:37.213Z,10.40
2018-04-24T23:10:06.463Z,7.77
2018-04-24T23:12:47.041Z,6.73
2018-04-24T23:15:33.539Z,7.20
2018-04-24T23:21:00.093Z,5.77
2018-04-24T23:23:29.736Z,7.03
2018-04-24T23:25:58.902Z,6.20
2018-04-24T23:28:28.407Z,6.60
2018-04-24T23:30:58.426Z,7.00
2018-04-24T23:33:27.621Z,5.43
2018-04-24T23:35:56.513Z,6.67
2018-04-24T23:38:25.513Z,4.90
2018-04-24T23:40:55.326Z,5.60
2018-04-24T23:43:24.320Z,5.10
2018-04-24T23:45:53.449Z,4.87
2018-04-24T23:48:22.461Z,5.23
2018-04-24T23:50:51.827Z,5.30
2018-04-24T23:53:20.812Z,4.93
2018-04-24T23:55:51.375Z,5.10
2018-04-24T23:58:21.190Z,5.20
